createdAt,value
2019-01-17T13:35:45.416Z,46.89
2019-01-17T13:38:15.094Z,46.13
2019-01-17T13:40:44.766Z,46.46
2019-01-17T13:43:14.408Z,48.50
2019-01-17T13:45:44.047Z,51.63
2019-01-17T13:48:13.598Z,53.95
2019-01-17T13:50:43.152Z,54.76
2019-01-17T13:53:12.794Z,54.78
2019-01-17T13:55:42.457Z,54.63
2019-01-17T13:58:11.925Z,53.84
2019-01-17T14:00:41.716Z,54.44
2019-01-17T14:03:11.336Z,53.00
2019-01-17T14:05:41.139Z,54.11
2019-01-17T14:08:10.865Z,52.92
2019-01-17T14:10:42.012Z,53.60
2019-01-17T14:13:11.641Z,54.27
2019-01-17T14:15:41.307Z,54.94
2019-01-17T14:18:11.049Z,54.10
2019-01-17T14:20:40.675Z,53.42
2019-01-17T14:23:10.230Z,53.45
2019-01-17T14:25:40.079Z,53.91
2019-01-17T14:28:09.473Z,54.19
2019-01-17T14:30:39.095Z,55.57
2019-01-17T14:33:08.663Z,55.97
2019-01-17T14:35:38.370Z,55.65
2019-01-17T14:38:07.914Z,54.93
2019-01-17T14:40:37.551Z,56.17
2019-01-17T14:43:07.215Z,57.89
2019-01-17T14:45:36.794Z,59.69
2019-01-17T14:48:06.513Z,64.14
2019-01-17T14:50:36.081Z,67.87
2019-01-17T14:53:05.637Z,70.31
2019-01-17T14:55:35.506Z,70.29
2019-01-17T14:58:05.187Z,66.84
2019-01-17T15:00:35.246Z,62.61
2019-01-17T15:03:04.878Z,60.78
2019-01-17T15:05:34.558Z,60.31
2019-01-17T15:08:05.281Z,62.16
2019-01-17T15:10:37.604Z,62.75
2019-01-17T15:13:07.140Z,63.74
2019-01-17T15:15:36.754Z,63.21
2019-01-17T15:18:06.986Z,64.39
2019-01-17T15:20:36.851Z,64.39
2019-01-17T15:23:07.609Z,64.87
2019-01-17T15:25:37.255Z,65.69
2019-01-17T15:28:06.906Z,64.94
2019-01-17T15:30:36.605Z,64.51
2019-01-17T15:33:06.135Z,65.09
2019-01-17T15:35:35.730Z,63.91
2019-01-17T15:38:05.433Z,63.95
2019-01-17T15:40:35.091Z,63.95
2019-01-17T15:43:04.725Z,64.42
2019-01-17T15:45:34.304Z,63.96
2019-01-17T15:48:04.030Z,62.61
2019-01-17T15:50:33.691Z,64.40
2019-01-17T15:53:03.367Z,63.10
2019-01-17T15:55:32.986Z,63.10
2019-01-17T15:58:02.671Z,63.67
2019-01-17T16:00:33.182Z,63.67
2019-01-17T16:03:02.929Z,62.93
2019-01-17T16:05:32.576Z,61.72
2019-01-17T16:08:02.478Z,61.72
2019-01-17T16:10:32.029Z,61.74
2019-01-17T16:13:01.623Z,60.45
2019-01-17T16:15:31.347Z,61.08
2019-01-17T16:18:00.947Z,62.40
2019-01-17T16:20:31.667Z,62.40
2019-01-17T16:23:01.335Z,61.89
2019-01-17T16:25:31.082Z,61.20
2019-01-17T16:28:01.249Z,61.20
2019-01-17T16:30:32.683Z,62.22
2019-01-17T16:33:02.200Z,62.22
2019-01-17T16:35:31.991Z,61.97
2019-01-17T16:38:01.641Z,62.21
2019-01-17T16:40:31.337Z,63.66
2019-01-17T16:43:01.307Z,65.93
2019-01-17T16:45:35.407Z,67.35
2019-01-17T16:48:03.355Z,68.60
2019-01-17T16:50:33.607Z,67.65
2019-01-17T16:53:03.331Z,67.65
2019-01-17T16:55:33.100Z,66.76
2019-01-17T16:58:02.921Z,64.67
2019-01-17T17:00:44.202Z,63.73
2019-01-17T17:03:13.876Z,63.73
2019-01-17T17:05:43.611Z,63.59
2019-01-17T17:08:14.069Z,63.30
2019-01-17T17:10:43.684Z,63.01
2019-01-17T17:13:13.452Z,63.12
2019-01-17T17:15:43.195Z,63.38
2019-01-17T17:18:13.072Z,62.80
2019-01-17T17:20:42.864Z,62.80
2019-01-17T17:23:14.532Z,63.20
2019-01-17T17:25:44.963Z,62.17
2019-01-17T17:28:14.674Z,61.85
2019-01-17T17:30:44.378Z,60.68
2019-01-17T17:33:13.974Z,60.68
2019-01-17T17:35:43.649Z,60.30
2019-01-17T17:38:13.337Z,60.16
2019-01-17T17:40:43.223Z,60.16
2019-01-17T17:43:12.897Z,59.61
2019-01-17T17:45:42.663Z,58.64
2019-01-17T17:48:12.292Z,58.37
2019-01-17T17:50:42.065Z,57.69
2019-01-17T17:53:11.716Z,57.09
2019-01-17T17:55:41.305Z,57.11
2019-01-17T17:58:10.916Z,57.11
2019-01-17T18:00:51.372Z,60.68
2019-01-17T18:03:21.083Z,63.40
2019-01-17T18:05:50.776Z,65.77
2019-01-17T18:08:20.427Z,67.60
2019-01-17T18:10:51.096Z,67.60
2019-01-17T18:13:20.747Z,68.62
2019-01-17T18:15:50.450Z,68.62
2019-01-17T18:18:19.993Z,67.50
2019-01-17T18:20:49.715Z,67.87
2019-01-17T18:23:19.198Z,66.56
2019-01-17T18:25:48.945Z,66.40
2019-01-17T18:28:18.521Z,65.99
2019-01-17T18:30:48.374Z,64.90
2019-01-17T18:33:18.294Z,64.31
2019-01-17T18:35:47.928Z,63.95
2019-01-17T18:38:17.587Z,63.29
2019-01-17T18:40:47.291Z,64.42
2019-01-17T18:43:16.982Z,63.71
2019-01-17T18:45:46.787Z,65.09
2019-01-17T18:48:16.626Z,65.82
2019-01-17T18:50:46.391Z,64.76
2019-01-17T18:53:15.927Z,65.05
2019-01-17T18:55:45.568Z,65.47
2019-01-17T18:58:15.639Z,64.54
2019-01-17T19:00:45.740Z,64.78
2019-01-17T19:03:15.377Z,64.28
2019-01-17T19:05:45.030Z,63.94
2019-01-17T19:08:14.495Z,65.00
2019-01-17T19:10:44.246Z,64.73
2019-01-17T19:13:13.890Z,65.50
2019-01-17T19:15:43.467Z,65.73
2019-01-17T19:18:13.119Z,65.82
2019-01-17T19:20:43.965Z,64.49
2019-01-17T19:23:13.575Z,64.49
2019-01-17T19:25:43.236Z,64.15
2019-01-17T19:28:12.898Z,62.34
2019-01-17T19:30:42.639Z,61.05
2019-01-17T19:33:12.467Z,60.68
2019-01-17T19:35:42.320Z,60.25
2019-01-17T19:38:11.975Z,60.05
2019-01-17T19:40:42.885Z,59.61
2019-01-17T19:43:12.665Z,59.54
2019-01-17T19:45:42.470Z,59.18
2019-01-17T19:48:12.061Z,57.88
2019-01-17T19:50:43.379Z,57.62
2019-01-17T19:53:13.012Z,58.41
2019-01-17T19:55:42.720Z,58.45
2019-01-17T19:58:12.346Z,58.92
2019-01-17T20:00:42.085Z,58.48
2019-01-17T20:03:11.738Z,57.52
2019-01-17T20:05:41.633Z,57.19
2019-01-17T20:08:11.377Z,56.87
2019-01-17T20:10:41.026Z,57.19
2019-01-17T20:13:10.941Z,57.23
2019-01-17T20:15:40.546Z,56.87
2019-01-17T20:18:10.041Z,56.88
2019-01-17T20:20:39.693Z,57.65
2019-01-17T20:23:09.430Z,57.21
2019-01-17T20:25:39.147Z,56.68
2019-01-17T20:28:08.829Z,56.62
2019-01-17T20:30:38.401Z,55.43
2019-01-17T20:33:09.192Z,54.95
2019-01-17T20:35:38.749Z,55.37
2019-01-17T20:38:08.519Z,54.91
2019-01-17T20:40:38.170Z,54.98
2019-01-17T20:43:07.847Z,55.44
2019-01-17T20:45:37.655Z,55.59
2019-01-17T20:48:07.358Z,57.30
2019-01-17T20:50:37.028Z,56.78
2019-01-17T20:53:06.583Z,57.14
2019-01-17T20:55:36.189Z,57.44
2019-01-17T20:58:06.689Z,57.29
2019-01-17T21:00:43.811Z,57.26
2019-01-17T21:03:15.142Z,57.56
2019-01-17T21:05:45.710Z,56.93
2019-01-17T21:08:15.440Z,57.12
2019-01-17T21:10:45.144Z,58.06
2019-01-17T21:13:14.683Z,58.10
2019-01-17T21:15:44.354Z,57.75
2019-01-17T21:18:14.009Z,57.71
2019-01-17T21:20:43.881Z,58.04
2019-01-17T21:23:13.526Z,58.49
2019-01-17T21:25:43.078Z,58.38
2019-01-17T21:28:12.646Z,57.87
2019-01-17T21:30:43.597Z,57.55
2019-01-17T21:33:13.352Z,57.64
2019-01-17T21:35:43.306Z,57.80
2019-01-17T21:38:13.007Z,57.48
2019-01-17T21:40:43.821Z,57.07
2019-01-17T21:43:13.517Z,57.13
2019-01-17T21:45:43.193Z,57.45
2019-01-17T21:48:12.805Z,58.36
2019-01-17T21:50:44.379Z,58.78
2019-01-17T21:53:13.996Z,58.43
2019-01-17T21:55:43.713Z,59.03
2019-01-17T21:58:13.442Z,59.19
2019-01-17T22:00:43.200Z,59.38
2019-01-17T22:03:12.830Z,59.06
2019-01-17T22:05:42.634Z,60.17
2019-01-17T22:08:12.266Z,60.96
2019-01-17T22:10:41.840Z,61.48
2019-01-17T22:13:11.480Z,61.88
2019-01-17T22:15:41.164Z,61.96
2019-01-17T22:18:10.724Z,62.07
2019-01-17T22:20:40.479Z,62.41
2019-01-17T22:23:10.115Z,63.74
2019-01-17T22:25:39.725Z,67.40
2019-01-17T22:28:09.266Z,69.44
2019-01-17T22:30:39.199Z,70.38
2019-01-17T22:33:10.240Z,69.94
2019-01-17T22:35:39.881Z,69.06
2019-01-17T22:38:09.427Z,68.80
2019-01-17T22:40:39.217Z,67.79
2019-01-17T22:43:08.723Z,66.97
2019-01-17T22:45:38.287Z,66.22
2019-01-17T22:48:07.837Z,65.52
2019-01-17T22:50:37.402Z,65.02
2019-01-17T22:53:07.019Z,64.44
2019-01-17T22:55:36.605Z,64.11
2019-01-17T22:58:06.130Z,62.55
2019-01-17T23:00:51.826Z,63.44
2019-01-17T23:03:26.747Z,63.41
2019-01-17T23:05:56.325Z,62.44
2019-01-17T23:08:25.788Z,62.89
2019-01-17T23:10:55.348Z,61.79
2019-01-17T23:13:24.768Z,61.02
2019-01-17T23:15:54.530Z,61.45
2019-01-17T23:18:23.952Z,59.94
2019-01-17T23:20:53.408Z,60.35
2019-01-17T23:23:22.995Z,59.91
2019-01-17T23:25:52.529Z,60.16
2019-01-17T23:28:22.113Z,59.32
2019-01-17T23:30:51.627Z,59.04
2019-01-17T23:33:21.186Z,59.25
2019-01-17T23:35:50.897Z,59.97
2019-01-17T23:38:20.432Z,60.25
2019-01-17T23:40:49.999Z,59.68
2019-01-17T23:43:19.633Z,59.28
2019-01-17T23:45:49.157Z,58.39
2019-01-17T23:48:18.869Z,58.09
2019-01-17T23:50:49.674Z,57.67
2019-01-17T23:53:19.185Z,57.86
2019-01-17T23:55:48.746Z,57.63
2019-01-17T23:58:18.304Z,58.38
